Time;durP1;ratioP1;P1;durP2;ratioP2;P2;SDS_P1;SDS_P2;PMS_P1;PMS_P2;Temp;Humidity;BMP_temperature;BMP_pressure;BME280_temperature;BME280_humidity;BME280_pressure;Samples;Min_cycle;Max_cycle;Signal;HPM_P1;HPM_P2
2023/10/07 00:01:28;;;;;;;;;;;;;;;13.87;88.95;100061.77;107606;275;96130;-59
2023/10/07 00:04:05;;;;;;;;;;;;;;;13.87;89.07;100066.84;107777;275;97249;-59
2023/10/07 00:06:42;;;;;;;;;;;;;;;13.88;88.87;100072.84;107771;275;120979;-56
2023/10/07 00:09:23;;;;;;;;;;;;;;;13.89;88.82;100069.79;107700;269;107656;-56
2023/10/07 00:12:02;;;;;;;;;;;;;;;13.93;88.63;100064.71;107686;275;114954;-54
2023/10/07 00:14:39;;;;;;;;;;;;;;;13.94;88.66;100062.73;107693;275;96966;-55
2023/10/07 00:17:16;;;;;;;;;;;;;;;13.95;88.42;100058.59;107658;275;98556;-53
2023/10/07 00:19:49;;;;;;;;;;;;;;;13.99;88.42;100044.70;107645;275;122271;-52
2023/10/07 00:22:26;;;;;;;;;;;;;;;14.00;88.31;100035.26;107709;275;105983;-54
2023/10/07 00:25:05;;;;;;;;;;;;;;;14.02;88.05;100028.25;107642;275;114226;-55
2023/10/07 00:27:38;;;;;;;;;;;;;;;14.03;88.03;100028.41;107638;275;96627;-53
2023/10/07 00:30:15;;;;;;;;;;;;;;;14.04;87.85;100019.96;107672;275;96052;-54
2023/10/07 00:32:55;;;;;;;;;;;;;;;14.08;87.73;100016.59;107702;275;121365;-56
2023/10/07 00:35:33;;;;;;;;;;;;;;;14.10;87.76;100015.28;107734;275;105941;-54
2023/10/07 00:38:14;;;;;;;;;;;;;;;14.11;87.66;100009.71;107664;275;114877;-53
2023/10/07 00:40:52;;;;;;;;;;;;;;;14.15;87.41;100007.13;107666;275;96333;-53
2023/10/07 00:43:37;;;;;;;;;;;;;;;14.19;87.17;100002.05;107689;275;97773;-53
2023/10/07 00:46:11;;;;;;;;;;;;;;;14.25;86.97;99995.25;107655;275;120312;-54
2023/10/07 00:48:47;;;;;;;;;;;;;;;14.27;86.84;99989.88;107712;275;105420;-55
2023/10/07 00:51:33;;;;;;;;;;;;;;;14.31;86.72;99982.96;107727;275;114611;-56
2023/10/07 00:54:17;;;;;;;;;;;;;;;14.36;86.40;99975.61;107777;275;96014;-56
2023/10/07 00:57:06;;;;;;;;;;;;;;;14.40;86.31;99975.79;107740;275;97242;-54
2023/10/07 00:59:40;;;;;;;;;;;;;;;14.43;86.13;99973.04;107662;275;121676;-54
2023/10/07 01:02:17;;;;;;;;;;;;;;;14.46;85.81;99981.79;107800;275;104769;-58
2023/10/07 01:05:00;;;;;;;;;;;;;;;14.43;86.03;99982.02;107830;275;112652;-58
2023/10/07 01:07:40;;;;;;;;;;;;;;;14.44;86.18;99986.06;107867;275;96903;-59
2023/10/07 01:10:25;;;;;;;;;;;;;;;14.37;86.48;99983.29;107925;275;96313;-58
2023/10/07 01:13:09;;;;;;;;;;;;;;;14.33;86.76;99986.64;107605;275;122096;-55
2023/10/07 01:15:58;;;;;;;;;;;;;;;14.26;87.07;99979.82;107663;275;105649;-53
2023/10/07 01:18:38;;;;;;;;;;;;;;;14.19;87.23;99971.23;107682;275;113686;-52
2023/10/07 01:21:11;;;;;;;;;;;;;;;14.14;87.60;99966.60;107655;275;96481;-53
2023/10/07 01:23:52;;;;;;;;;;;;;;;14.11;87.70;99968.14;107661;275;96687;-53
2023/10/07 01:26:33;;;;;;;;;;;;;;;14.05;87.98;99963.50;107542;275;121291;-55
2023/10/07 01:29:13;;;;;;;;;;;;;;;13.98;88.21;99952.28;107518;275;105502;-54
2023/10/07 01:31:59;;;;;;;;;;;;;;;13.92;88.50;99961.15;107530;275;115500;-58
2023/10/07 01:34:47;;;;;;;;;;;;;;;13.86;88.74;99963.20;107617;275;96040;-58
2023/10/07 01:37:22;;;;;;;;;;;;;;;13.75;89.16;99953.97;107654;275;96826;-54
2023/10/07 01:39:58;;;;;;;;;;;;;;;13.73;89.12;99949.19;107659;276;121374;-54
2023/10/07 01:42:42;;;;;;;;;;;;;;;13.74;89.23;99945.13;107705;277;105608;-52
2023/10/07 01:45:22;;;;;;;;;;;;;;;13.73;89.92;99933.98;107686;277;112987;-52
2023/10/07 01:48:06;;;;;;;;;;;;;;;13.73;89.64;99925.60;107855;277;97121;-58
2023/10/07 01:50:43;;;;;;;;;;;;;;;13.70;89.82;99923.11;107866;277;96846;-53
2023/10/07 01:53:17;;;;;;;;;;;;;;;13.67;89.75;99918.79;107661;276;121106;-52
2023/10/07 01:55:52;;;;;;;;;;;;;;;13.65;89.85;99915.73;107585;276;105510;-54
2023/10/07 01:58:28;;;;;;;;;;;;;;;13.67;89.94;99902.05;107625;276;113570;-55
2023/10/07 02:01:05;;;;;;;;;;;;;;;13.67;90.03;99890.02;107627;277;95460;-56
2023/10/07 02:03:43;;;;;;;;;;;;;;;13.65;90.16;99882.90;107656;277;98243;-57
2023/10/07 02:06:21;;;;;;;;;;;;;;;13.61;90.29;99879.50;107596;277;123286;-54
2023/10/07 02:08:56;;;;;;;;;;;;;;;13.61;90.28;99882.42;107638;277;105049;-55
2023/10/07 02:11:36;;;;;;;;;;;;;;;13.59;90.25;99879.39;107660;277;114326;-56
2023/10/07 02:14:14;;;;;;;;;;;;;;;13.57;90.29;99882.96;107626;276;97727;-56
2023/10/07 02:16:49;;;;;;;;;;;;;;;13.52;90.48;99881.52;107716;276;97493;-52
2023/10/07 02:19:32;;;;;;;;;;;;;;;13.52;90.57;99885.25;107469;277;122403;-52
2023/10/07 02:22:07;;;;;;;;;;;;;;;13.54;90.46;99885.09;107669;276;104665;-52
2023/10/07 02:24:44;;;;;;;;;;;;;;;13.56;90.63;99878.83;107729;277;114090;-52
2023/10/07 02:27:25;;;;;;;;;;;;;;;13.59;90.56;99873.10;107786;277;96654;-57
2023/10/07 02:30:00;;;;;;;;;;;;;;;13.59;90.61;99871.96;107760;277;95370;-58
2023/10/07 02:32:34;;;;;;;;;;;;;;;13.62;90.35;99869.48;107730;276;121297;-54
2023/10/07 02:35:09;;;;;;;;;;;;;;;13.59;90.33;99861.98;107533;276;107504;-54
2023/10/07 02:37:49;;;;;;;;;;;;;;;13.60;90.30;99858.21;107633;276;114214;-56
2023/10/07 02:40:22;;;;;;;;;;;;;;;13.60;90.39;99861.73;107610;276;95414;-56
2023/10/07 02:42:56;;;;;;;;;;;;;;;13.60;90.13;99856.59;107446;277;96273;-56
2023/10/07 02:45:29;;;;;;;;;;;;;;;13.63;90.14;99852.09;107511;277;120965;-57
2023/10/07 02:48:01;;;;;;;;;;;;;;;13.67;89.93;99845.23;107729;276;105674;-59
2023/10/07 02:50:39;;;;;;;;;;;;;;;13.68;89.76;99839.89;107744;276;113437;-56
2023/10/07 02:53:14;;;;;;;;;;;;;;;13.69;89.66;99841.23;107634;276;96360;-56
2023/10/07 02:55:54;;;;;;;;;;;;;;;13.70;89.55;99837.23;107631;276;98435;-56
2023/10/07 02:58:33;;;;;;;;;;;;;;;13.69;89.50;99829.98;107610;277;122437;-56
2023/10/07 03:01:13;;;;;;;;;;;;;;;13.67;89.49;99825.13;107691;276;105302;-53
2023/10/07 03:03:48;;;;;;;;;;;;;;;13.65;89.43;99823.40;107662;277;114552;-54
2023/10/07 03:06:26;;;;;;;;;;;;;;;13.66;89.21;99819.05;107688;276;96706;-53
2023/10/07 03:09:02;;;;;;;;;;;;;;;13.64;89.18;99816.96;107698;276;95949;-54
2023/10/07 03:11:40;;;;;;;;;;;;;;;13.63;89.01;99821.15;107668;276;121956;-56
2023/10/07 03:14:23;;;;;;;;;;;;;;;13.59;89.14;99820.02;107656;276;106426;-57
2023/10/07 03:17:00;;;;;;;;;;;;;;;13.59;89.00;99813.02;107725;277;113879;-58
2023/10/07 03:19:48;;;;;;;;;;;;;;;13.59;88.94;99804.70;107493;277;96811;-56
2023/10/07 03:22:28;;;;;;;;;;;;;;;13.57;88.84;99792.90;107669;277;97334;-52
2023/10/07 03:25:07;;;;;;;;;;;;;;;13.58;88.73;99789.63;107625;276;122038;-53
2023/10/07 03:27:49;;;;;;;;;;;;;;;13.58;88.50;99790.08;107648;276;105566;-53
2023/10/07 03:30:22;;;;;;;;;;;;;;;13.58;88.59;99787.76;107622;276;113560;-52
2023/10/07 03:33:07;;;;;;;;;;;;;;;13.61;88.34;99783.89;107686;276;95477;-63
2023/10/07 03:36:07;;;;;;;;;;;;;;;13.63;88.35;99774.17;107678;276;96819;-53
2023/10/07 03:38:43;;;;;;;;;;;;;;;13.63;88.14;99769.41;107683;277;120740;-53
2023/10/07 03:41:21;;;;;;;;;;;;;;;13.65;88.07;99772.24;107672;277;104064;-59
2023/10/07 03:43:56;;;;;;;;;;;;;;;13.69;87.93;99770.86;107695;276;114859;-57
2023/10/07 03:46:34;;;;;;;;;;;;;;;13.72;87.78;99768.02;107678;276;95572;-58
2023/10/07 03:49:15;;;;;;;;;;;;;;;13.74;87.68;99765.80;107548;277;97347;-57
2023/10/07 03:52:03;;;;;;;;;;;;;;;13.78;87.49;99765.00;107701;276;121146;-53
2023/10/07 03:54:40;;;;;;;;;;;;;;;13.80;87.39;99760.84;107707;276;105620;-52
2023/10/07 03:57:19;;;;;;;;;;;;;;;13.82;87.53;99758.93;107665;277;114724;-57
2023/10/07 03:59:56;;;;;;;;;;;;;;;13.83;87.64;99754.84;107089;277;536700;-58
2023/10/07 04:02:41;;;;;;;;;;;;;;;13.83;87.77;99752.66;107669;277;98206;-54
2023/10/07 04:05:42;;;;;;;;;;;;;;;13.82;87.96;99749.17;107639;277;121458;-57
2023/10/07 04:08:13;;;;;;;;;;;;;;;13.81;88.04;99746.89;107619;277;105264;-57
2023/10/07 04:10:47;;;;;;;;;;;;;;;13.80;88.09;99748.11;107652;276;114438;-54
2023/10/07 04:13:24;;;;;;;;;;;;;;;13.77;88.14;99748.52;107627;277;96666;-54
2023/10/07 04:16:01;;;;;;;;;;;;;;;13.76;88.15;99741.13;107636;277;98450;-56
2023/10/07 04:18:35;;;;;;;;;;;;;;;13.79;87.95;99740.31;107631;277;122506;-56
2023/10/07 04:21:12;;;;;;;;;;;;;;;13.80;88.02;99742.04;107676;277;104508;-57
2023/10/07 04:23:50;;;;;;;;;;;;;;;13.81;87.91;99737.73;107604;277;114731;-57
2023/10/07 04:26:26;;;;;;;;;;;;;;;13.84;88.03;99730.64;107656;276;97913;-58
2023/10/07 04:29:07;;;;;;;;;;;;;;;13.87;87.90;99730.90;107723;277;96737;-59
2023/10/07 04:31:48;;;;;;;;;;;;;;;13.88;87.98;99730.21;107760;277;122305;-58
2023/10/07 04:34:23;;;;;;;;;;;;;;;13.90;88.20;99730.95;107748;277;105107;-58
2023/10/07 04:37:13;;;;;;;;;;;;;;;13.88;88.20;99727.67;107668;276;112682;-57
2023/10/07 04:43:00;;;;;;;;;;;;;;;13.87;88.48;99737.70;107727;277;96890;-58
2023/10/07 04:45:37;;;;;;;;;;;;;;;13.86;88.64;99734.26;107806;276;121800;-53
2023/10/07 04:48:24;;;;;;;;;;;;;;;13.86;88.97;99725.98;107628;277;105733;-51
2023/10/07 04:51:07;;;;;;;;;;;;;;;13.85;89.11;99723.98;107623;276;114815;-56
2023/10/07 04:53:57;;;;;;;;;;;;;;;13.81;89.23;99728.66;107597;277;94971;-57
2023/10/07 04:56:39;;;;;;;;;;;;;;;13.78;89.61;99719.52;107665;276;95853;-54
2023/10/07 04:59:17;;;;;;;;;;;;;;;13.78;89.73;99723.98;107644;277;122136;-53
2023/10/07 05:02:01;;;;;;;;;;;;;;;13.76;89.96;99722.17;107639;277;104516;-54
2023/10/07 05:04:39;;;;;;;;;;;;;;;13.74;90.13;99721.56;107613;277;114652;-55
2023/10/07 05:07:11;;;;;;;;;;;;;;;13.74;90.39;99719.66;107879;277;96735;-58
2023/10/07 05:09:47;;;;;;;;;;;;;;;13.76;90.59;99721.73;107974;276;97912;-58
2023/10/07 05:12:22;;;;;;;;;;;;;;;13.75;90.80;99719.05;107604;277;120535;-54
2023/10/07 05:15:00;;;;;;;;;;;;;;;13.77;90.92;99713.77;107699;277;105946;-55
2023/10/07 05:17:37;;;;;;;;;;;;;;;13.77;91.19;99708.41;107815;277;114716;-58
2023/10/07 05:20:41;;;;;;;;;;;;;;;13.80;91.86;99702.23;107777;277;96483;-58
2023/10/07 05:23:18;;;;;;;;;;;;;;;13.81;91.82;99702.40;107742;277;97108;-52
2023/10/07 05:25:55;;;;;;;;;;;;;;;13.83;91.90;99703.21;107660;277;122174;-55
2023/10/07 05:28:39;;;;;;;;;;;;;;;13.85;91.76;99700.94;107520;276;105825;-58
2023/10/07 05:31:17;;;;;;;;;;;;;;;13.88;91.93;99700.47;107638;277;114746;-56
2023/10/07 05:33:51;;;;;;;;;;;;;;;13.90;92.10;99694.89;107656;277;96598;-57
2023/10/07 05:36:29;;;;;;;;;;;;;;;13.90;91.93;99710.41;107649;276;97709;-55
2023/10/07 05:39:08;;;;;;;;;;;;;;;13.89;92.25;99718.65;107638;277;123255;-54
2023/10/07 05:41:44;;;;;;;;;;;;;;;13.92;92.16;99723.83;107652;276;106090;-57
2023/10/07 05:44:20;;;;;;;;;;;;;;;13.94;92.21;99725.89;107643;277;114378;-56
2023/10/07 05:46:55;;;;;;;;;;;;;;;13.96;92.24;99725.20;107636;277;97093;-52
2023/10/07 05:49:31;;;;;;;;;;;;;;;13.99;92.31;99738.55;107668;277;96538;-52
2023/10/07 05:52:05;;;;;;;;;;;;;;;14.06;92.35;99725.81;107624;277;122573;-53
2023/10/07 05:54:43;;;;;;;;;;;;;;;14.10;92.35;99739.89;107682;276;105998;-53
2023/10/07 05:57:17;;;;;;;;;;;;;;;14.14;92.19;99741.42;107661;277;114067;-53
2023/10/07 05:59:51;;;;;;;;;;;;;;;14.17;92.21;99734.66;107677;277;96233;-53
2023/10/07 06:02:24;;;;;;;;;;;;;;;14.24;92.26;99727.04;107707;276;96761;-55
2023/10/07 06:05:00;;;;;;;;;;;;;;;14.29;92.26;99725.56;107688;277;120366;-57
2023/10/07 06:07:39;;;;;;;;;;;;;;;14.34;92.25;99725.10;107697;276;105509;-55
2023/10/07 06:10:11;;;;;;;;;;;;;;;14.37;92.19;99729.23;107675;277;113746;-55
2023/10/07 06:12:47;;;;;;;;;;;;;;;14.45;92.07;99725.41;107647;276;97133;-53
2023/10/07 06:15:20;;;;;;;;;;;;;;;14.48;91.98;99721.64;107494;276;97477;-52
2023/10/07 06:17:54;;;;;;;;;;;;;;;14.54;91.80;99723.48;107689;276;122901;-58
2023/10/07 06:20:37;;;;;;;;;;;;;;;14.59;91.84;99722.91;107713;276;104371;-54
2023/10/07 06:23:14;;;;;;;;;;;;;;;14.64;91.68;99718.92;107641;276;115089;-53
2023/10/07 06:26:01;;;;;;;;;;;;;;;14.69;91.67;99716.35;107594;276;97566;-53
2023/10/07 06:28:35;;;;;;;;;;;;;;;14.74;91.50;99716.52;107633;276;98064;-54
2023/10/07 06:31:13;;;;;;;;;;;;;;;14.78;91.58;99718.67;107647;276;122194;-51
2023/10/07 06:34:00;;;;;;;;;;;;;;;14.82;91.35;99714.15;107666;277;105808;-52
2023/10/07 06:36:34;;;;;;;;;;;;;;;14.84;91.20;99720.46;107664;277;114854;-59
2023/10/07 06:39:07;;;;;;;;;;;;;;;14.90;91.09;99718.38;107660;276;95909;-58
2023/10/07 06:41:43;;;;;;;;;;;;;;;14.92;91.03;99731.05;107735;277;97574;-52
2023/10/07 06:44:21;;;;;;;;;;;;;;;14.95;91.07;99725.36;107682;276;121323;-53
2023/10/07 06:46:56;;;;;;;;;;;;;;;14.98;90.88;99722.34;107736;276;105475;-54
2023/10/07 06:49:34;;;;;;;;;;;;;;;15.05;90.83;99727.02;107673;277;114436;-53
2023/10/07 06:52:12;;;;;;;;;;;;;;;15.14;90.72;99724.63;107719;276;96083;-58
2023/10/07 06:54:43;;;;;;;;;;;;;;;15.19;90.61;99728.02;107680;276;97770;-58
2023/10/07 06:57:28;;;;;;;;;;;;;;;15.23;90.49;99730.95;107660;276;121588;-53
2023/10/07 07:00:11;;;;;;;;;;;;;;;15.27;90.32;99734.77;107654;276;105442;-53
2023/10/07 07:02:54;;;;;;;;;;;;;;;15.31;90.24;99736.41;107638;276;114393;-57
2023/10/07 07:05:28;;;;;;;;;;;;;;;15.32;90.03;99736.57;107616;276;96484;-55
2023/10/07 07:08:03;;;;;;;;;;;;;;;15.34;89.97;99734.15;107678;277;98540;-54
2023/10/07 07:10:40;;;;;;;;;;;;;;;15.38;89.92;99720.48;107642;276;121801;-54
2023/10/07 07:13:22;;;;;;;;;;;;;;;15.43;89.86;99716.52;107436;277;104062;-53
2023/10/07 07:15:58;;;;;;;;;;;;;;;15.52;89.67;99717.44;107703;277;114312;-53
2023/10/07 07:18:38;;;;;;;;;;;;;;;15.55;89.66;99720.48;107635;276;95277;-58
2023/10/07 07:21:31;;;;;;;;;;;;;;;15.63;89.67;99717.65;107542;277;97658;-54
2023/10/07 07:24:03;;;;;;;;;;;;;;;15.74;89.53;99710.10;107603;277;121772;-54
2023/10/07 07:26:38;;;;;;;;;;;;;;;15.75;89.29;99716.07;107792;276;104499;-58
2023/10/07 07:29:17;;;;;;;;;;;;;;;15.77;89.21;99713.00;107982;276;113729;-57
2023/10/07 07:31:50;;;;;;;;;;;;;;;15.77;89.11;99714.36;107676;276;95880;-54
2023/10/07 07:34:36;;;;;;;;;;;;;;;15.78;89.14;99714.88;107646;276;96791;-55
2023/10/07 07:37:14;;;;;;;;;;;;;;;15.87;88.92;99720.23;107684;276;121976;-53
2023/10/07 07:39:47;;;;;;;;;;;;;;;15.89;88.95;99721.16;107692;276;106873;-52
2023/10/07 07:42:32;;;;;;;;;;;;;;;15.88;88.85;99727.41;107727;276;113966;-55
2023/10/07 07:45:15;;;;;;;;;;;;;;;15.94;88.78;99718.27;107660;277;95597;-57
2023/10/07 07:47:49;;;;;;;;;;;;;;;16.02;88.65;99718.00;107635;277;97144;-55
2023/10/07 07:50:41;;;;;;;;;;;;;;;16.12;88.54;99714.98;107624;277;120941;-56
2023/10/07 07:53:24;;;;;;;;;;;;;;;16.17;88.65;99717.02;107458;277;106215;-55
2023/10/07 07:55:58;;;;;;;;;;;;;;;16.22;88.42;99705.60;107429;277;113705;-58
2023/10/07 07:58:34;;;;;;;;;;;;;;;16.30;88.34;99702.85;107719;277;95572;-59
2023/10/07 08:01:15;;;;;;;;;;;;;;;16.49;88.41;99698.23;107662;277;96686;-52
2023/10/07 08:03:55;;;;;;;;;;;;;;;16.96;88.42;99709.71;107451;277;120163;-53
2023/10/07 08:06:26;;;;;;;;;;;;;;;17.09;87.56;99704.48;107733;277;105921;-53
2023/10/07 08:09:02;;;;;;;;;;;;;;;17.17;87.40;99709.34;107641;277;113911;-53
2023/10/07 08:11:35;;;;;;;;;;;;;;;17.34;87.06;99705.73;107658;277;96530;-58
2023/10/07 08:14:10;;;;;;;;;;;;;;;17.54;86.76;99700.09;107749;277;97573;-58
2023/10/07 08:16:55;;;;;;;;;;;;;;;17.74;86.46;99710.06;107725;276;121877;-56
2023/10/07 08:19:32;;;;;;;;;;;;;;;17.85;85.58;99698.02;107669;276;104202;-59
2023/10/07 08:22:20;;;;;;;;;;;;;;;17.90;85.10;99704.00;107549;277;113207;-58
2023/10/07 08:25:00;;;;;;;;;;;;;;;17.92;84.36;99704.17;107677;276;95816;-58
2023/10/07 08:27:49;;;;;;;;;;;;;;;17.79;84.46;99714.28;107530;277;96546;-53
2023/10/07 08:30:37;;;;;;;;;;;;;;;17.66;84.30;99714.00;107646;276;122413;-55
2023/10/07 08:33:15;;;;;;;;;;;;;;;17.62;84.24;99720.60;107661;276;103364;-58
2023/10/07 08:35:47;;;;;;;;;;;;;;;17.61;84.49;99722.83;107481;277;116979;-58
2023/10/07 08:38:29;;;;;;;;;;;;;;;17.50;84.23;99718.16;107685;276;96553;-57
2023/10/07 08:41:04;;;;;;;;;;;;;;;17.43;84.10;99723.35;107658;277;96722;-57
2023/10/07 08:43:38;;;;;;;;;;;;;;;17.43;84.31;99719.52;107668;276;121396;-58
2023/10/07 08:46:12;;;;;;;;;;;;;;;17.51;84.29;99719.39;107692;276;104699;-54
2023/10/07 08:48:49;;;;;;;;;;;;;;;17.62;84.30;99717.15;107684;276;112986;-54
2023/10/07 08:51:28;;;;;;;;;;;;;;;17.74;84.12;99722.96;107479;277;97647;-54
2023/10/07 08:54:10;;;;;;;;;;;;;;;17.78;83.99;99731.04;107687;276;95826;-54
2023/10/07 08:56:49;;;;;;;;;;;;;;;17.72;83.69;99736.09;107712;276;121277;-58
2023/10/07 08:59:30;;;;;;;;;;;;;;;17.72;83.55;99740.03;107589;277;105634;-58
2023/10/07 09:02:03;;;;;;;;;;;;;;;17.81;83.61;99746.88;107695;276;114447;-55
2023/10/07 09:04:40;;;;;;;;;;;;;;;17.86;83.25;99757.23;107527;277;97054;-55
2023/10/07 09:07:31;;;;;;;;;;;;;;;17.84;83.29;99746.59;107683;276;97461;-55
2023/10/07 09:10:13;;;;;;;;;;;;;;;17.78;82.86;99753.73;107627;277;120534;-59
2023/10/07 09:12:56;;;;;;;;;;;;;;;17.70;82.77;99746.50;107642;276;103485;-52
2023/10/07 09:15:34;;;;;;;;;;;;;;;17.57;82.70;99753.67;107682;276;113954;-58
2023/10/07 09:18:10;;;;;;;;;;;;;;;17.55;82.85;99751.63;107624;276;95650;-58
2023/10/07 09:20:50;;;;;;;;;;;;;;;17.55;82.92;99748.09;107758;276;97988;-58
2023/10/07 09:23:24;;;;;;;;;;;;;;;17.52;82.85;99753.03;107650;276;121375;-58
2023/10/07 09:26:14;;;;;;;;;;;;;;;17.42;82.75;99749.44;107739;277;104511;-54
2023/10/07 09:28:51;;;;;;;;;;;;;;;17.37;82.84;99749.27;107637;276;113772;-55
2023/10/07 09:31:27;;;;;;;;;;;;;;;17.38;82.80;99750.81;107544;277;96706;-55
2023/10/07 09:34:10;;;;;;;;;;;;;;;17.46;82.82;99759.70;107664;276;98482;-54
2023/10/07 09:36:46;;;;;;;;;;;;;;;17.52;82.77;99758.56;107692;277;122038;-55
2023/10/07 09:39:34;;;;;;;;;;;;;;;17.56;82.48;99756.66;107734;276;104585;-55
2023/10/07 09:42:26;;;;;;;;;;;;;;;17.59;82.23;99758.31;107712;276;114304;-57
2023/10/07 09:45:02;;;;;;;;;;;;;;;17.58;82.08;99767.85;107469;277;97227;-57
2023/10/07 09:47:40;;;;;;;;;;;;;;;17.52;81.92;99769.80;107672;276;97247;-57
2023/10/07 09:50:25;;;;;;;;;;;;;;;17.40;81.30;99772.34;107630;276;121863;-57
2023/10/07 09:53:14;;;;;;;;;;;;;;;17.32;81.22;99771.33;107496;277;105985;-53
2023/10/07 09:55:57;;;;;;;;;;;;;;;17.27;81.44;99783.48;107673;277;111977;-55
2023/10/07 09:58:37;;;;;;;;;;;;;;;17.18;81.51;99788.40;107637;276;95790;-55
2023/10/07 10:01:32;;;;;;;;;;;;;;;17.16;81.73;99791.83;107556;277;97670;-58
2023/10/07 10:04:28;;;;;;;;;;;;;;;17.36;81.95;99796.30;107708;276;121548;-58
2023/10/07 10:07:13;;;;;;;;;;;;;;;17.56;82.07;99799.77;107634;276;104772;-53
2023/10/07 10:10:05;;;;;;;;;;;;;;;17.71;81.98;99800.16;107603;277;114386;-53
2023/10/07 10:13:06;;;;;;;;;;;;;;;17.80;82.02;99796.64;107686;276;96076;-55
2023/10/07 10:15:57;;;;;;;;;;;;;;;17.82;81.91;99788.32;107646;276;98154;-54
2023/10/07 10:18:41;;;;;;;;;;;;;;;17.91;81.82;99789.16;107627;277;122398;-54
2023/10/07 10:21:15;;;;;;;;;;;;;;;17.91;81.60;99793.54;107690;276;105246;-53
2023/10/07 10:23:51;;;;;;;;;;;;;;;17.92;81.61;99781.25;107517;277;112945;-55
2023/10/07 10:26:27;;;;;;;;;;;;;;;17.95;81.43;99777.69;107518;276;95974;-57
2023/10/07 10:29:07;;;;;;;;;;;;;;;17.98;81.29;99772.91;107706;276;98600;-56
2023/10/07 10:31:51;;;;;;;;;;;;;;;17.99;81.07;99774.23;107649;276;121167;-56
2023/10/07 10:34:27;;;;;;;;;;;;;;;18.05;80.85;99776.20;107710;276;103431;-58
2023/10/07 10:37:06;;;;;;;;;;;;;;;18.10;80.62;99779.79;107595;277;113426;-54
2023/10/07 10:39:39;;;;;;;;;;;;;;;18.07;80.17;99774.58;107661;276;94761;-54
2023/10/07 10:42:13;;;;;;;;;;;;;;;18.04;79.91;99777.31;107498;277;96042;-58
2023/10/07 10:44:54;;;;;;;;;;;;;;;18.06;79.88;99783.14;107626;276;120511;-57
2023/10/07 10:47:35;;;;;;;;;;;;;;;18.04;79.76;99777.42;107661;276;104876;-58
2023/10/07 10:50:15;;;;;;;;;;;;;;;18.02;79.40;99774.98;107638;276;114161;-59
2023/10/07 10:52:54;;;;;;;;;;;;;;;18.00;79.42;99781.95;107653;276;96401;-56
2023/10/07 10:55:35;;;;;;;;;;;;;;;18.05;79.47;99784.83;107511;277;96563;-55
2023/10/07 10:58:19;;;;;;;;;;;;;;;18.16;79.47;99778.56;107570;276;120962;-54
2023/10/07 11:00:51;;;;;;;;;;;;;;;18.21;79.01;99782.89;107655;277;104676;-54
2023/10/07 11:03:31;;;;;;;;;;;;;;;18.21;78.95;99781.96;107524;277;115425;-54
2023/10/07 11:06:09;;;;;;;;;;;;;;;18.20;78.87;99784.36;107680;276;95993;-57
2023/10/07 11:08:42;;;;;;;;;;;;;;;18.24;78.85;99794.02;107632;276;96978;-58
2023/10/07 11:11:26;;;;;;;;;;;;;;;18.23;78.84;99795.88;107688;277;121705;-56
2023/10/07 11:14:13;;;;;;;;;;;;;;;18.17;78.60;99801.11;107680;276;106477;-56
2023/10/07 11:16:49;;;;;;;;;;;;;;;18.12;78.45;99803.29;107703;276;115300;-56
2023/10/07 11:19:22;;;;;;;;;;;;;;;18.08;78.26;99799.12;107656;276;95731;-57
2023/10/07 11:21:57;;;;;;;;;;;;;;;18.07;78.49;99798.02;107715;276;96603;-55
2023/10/07 11:24:34;;;;;;;;;;;;;;;18.03;78.40;99794.52;107661;276;121732;-55
2023/10/07 11:27:14;;;;;;;;;;;;;;;18.06;78.28;99798.83;107643;276;105465;-56
2023/10/07 11:29:56;;;;;;;;;;;;;;;18.04;78.14;99794.15;107657;276;115228;-57
2023/10/07 11:32:33;;;;;;;;;;;;;;;18.04;78.04;99797.54;107650;276;96413;-54
2023/10/07 11:35:16;;;;;;;;;;;;;;;18.08;78.16;99795.41;107638;276;95935;-54
2023/10/07 11:37:57;;;;;;;;;;;;;;;18.16;78.06;99788.19;107647;277;120892;-53
2023/10/07 11:40:30;;;;;;;;;;;;;;;18.20;78.06;99798.42;107598;276;105760;-54
2023/10/07 11:43:08;;;;;;;;;;;;;;;18.24;77.81;99798.64;107646;276;114558;-55
2023/10/07 11:45:47;;;;;;;;;;;;;;;18.26;77.86;99802.54;107635;277;97422;-53
2023/10/07 11:48:21;;;;;;;;;;;;;;;18.28;77.81;99805.67;107635;277;99586;-52
2023/10/07 11:50:55;;;;;;;;;;;;;;;18.21;77.71;99798.33;107652;277;121630;-53
2023/10/07 11:53:29;;;;;;;;;;;;;;;18.12;77.76;99798.14;107497;277;104940;-54
2023/10/07 11:55:59;;;;;;;;;;;;;;;18.03;77.71;99791.39;107509;277;114814;-54
2023/10/07 11:58:35;;;;;;;;;;;;;;;17.92;77.79;99789.60;107260;277;487494;-53
2023/10/07 12:01:11;;;;;;;;;;;;;;;17.83;77.56;99796.85;107562;277;97847;-56
2023/10/07 12:03:47;;;;;;;;;;;;;;;17.69;77.68;99800.97;107707;277;120322;-57
2023/10/07 12:06:20;;;;;;;;;;;;;;;17.59;77.72;99804.41;107659;277;106019;-52
2023/10/07 12:08:51;;;;;;;;;;;;;;;17.49;77.71;99810.83;107681;277;114602;-53
2023/10/07 12:11:23;;;;;;;;;;;;;;;17.36;77.91;99813.02;107634;277;96751;-58
2023/10/07 12:13:52;;;;;;;;;;;;;;;17.22;77.95;99809.55;107687;276;98631;-59
2023/10/07 12:16:29;;;;;;;;;;;;;;;17.12;78.10;99816.20;107625;277;122056;-54
2023/10/07 12:19:01;;;;;;;;;;;;;;;17.09;78.27;99818.06;107646;277;106059;-52
2023/10/07 12:21:36;;;;;;;;;;;;;;;17.08;78.38;99823.33;107654;277;115773;-59
2023/10/07 12:24:13;;;;;;;;;;;;;;;17.04;78.55;99828.94;107637;277;96582;-60
2023/10/07 12:26:47;;;;;;;;;;;;;;;17.04;78.62;99838.78;107676;277;96499;-63
2023/10/07 12:29:19;;;;;;;;;;;;;;;17.03;78.82;99839.52;107515;277;120824;-56
2023/10/07 12:31:55;;;;;;;;;;;;;;;17.07;78.84;99835.48;107637;277;105240;-53
2023/10/07 12:34:36;;;;;;;;;;;;;;;17.10;78.84;99833.65;107677;277;114152;-54
2023/10/07 12:37:12;;;;;;;;;;;;;;;17.25;78.67;99830.51;107715;277;96676;-59
2023/10/07 12:39:49;;;;;;;;;;;;;;;17.35;78.53;99830.20;107700;277;97530;-59
2023/10/07 12:42:25;;;;;;;;;;;;;;;17.49;78.39;99834.64;107783;277;120814;-60
2023/10/07 12:45:04;;;;;;;;;;;;;;;17.60;78.06;99831.80;107759;277;106806;-59
2023/10/07 12:47:44;;;;;;;;;;;;;;;17.71;78.07;99832.30;107658;277;114167;-55
2023/10/07 12:50:24;;;;;;;;;;;;;;;17.84;77.84;99832.27;107683;277;94125;-55
2023/10/07 12:53:04;;;;;;;;;;;;;;;17.83;77.28;99831.40;107692;277;98034;-54
2023/10/07 12:55:39;;;;;;;;;;;;;;;17.76;76.85;99833.58;107682;277;122889;-55
2023/10/07 12:58:17;;;;;;;;;;;;;;;17.67;76.90;99836.71;107645;277;105613;-60
2023/10/07 13:00:51;;;;;;;;;;;;;;;17.52;76.67;99840.89;107686;277;113867;-58
2023/10/07 13:03:29;;;;;;;;;;;;;;;17.39;76.87;99838.30;107629;277;94537;-57
2023/10/07 13:06:08;;;;;;;;;;;;;;;17.29;76.96;99833.96;107662;277;97693;-60
2023/10/07 13:08:41;;;;;;;;;;;;;;;17.20;77.02;99840.53;107618;277;122458;-58
2023/10/07 13:11:20;;;;;;;;;;;;;;;17.13;76.98;99839.63;107665;277;105239;-58
2023/10/07 13:13:56;;;;;;;;;;;;;;;17.12;77.14;99846.16;107611;277;112184;-57
2023/10/07 13:16:37;;;;;;;;;;;;;;;17.10;77.28;99843.73;107655;277;94847;-59
2023/10/07 13:19:14;;;;;;;;;;;;;;;17.11;77.51;99842.71;107644;277;97665;-58
2023/10/07 13:21:51;;;;;;;;;;;;;;;17.13;77.52;99842.73;107639;276;122964;-59
2023/10/07 13:24:29;;;;;;;;;;;;;;;17.14;77.52;99842.76;107627;277;105617;-59
2023/10/07 13:27:04;;;;;;;;;;;;;;;17.11;77.40;99846.70;107665;277;112993;-58
2023/10/07 13:29:37;;;;;;;;;;;;;;;17.10;77.49;99846.67;107640;277;95951;-59
2023/10/07 13:32:12;;;;;;;;;;;;;;;17.09;77.37;99850.96;107682;276;97937;-58
2023/10/07 13:34:45;;;;;;;;;;;;;;;17.18;77.58;99853.09;107623;276;119978;-58
2023/10/07 13:37:21;;;;;;;;;;;;;;;17.22;77.64;99850.02;107710;277;105331;-63
2023/10/07 13:39:57;;;;;;;;;;;;;;;17.24;77.81;99848.23;107662;277;113955;-59
2023/10/07 13:42:31;;;;;;;;;;;;;;;17.18;77.97;99858.55;107644;277;96357;-57